Time;durP1;ratioP1;P1;durP2;ratioP2;P2;SDS_P1;SDS_P2;PMS_P1;PMS_P2;Temp;Humidity;BMP_temperature;BMP_pressure;BME280_temperature;BME280_humidity;BME280_pressure;Samples;Min_cycle;Max_cycle;Signal;HPM_P1;HPM_P2
2024/03/31 00:11:24;;;;;;;56.30;16.50;;;;;;;16.98;64.17;99007.97;665446;1276;140182;-81
2024/03/31 00:26:27;;;;;;;55.70;12.50;;;;;;;16.80;64.32;99006.94;665010;1267;138798;-81
2024/03/31 00:41:31;;;;;;;53.70;11.00;;;;;;;16.63;64.46;98988.19;664196;1265;138768;-80
2024/03/31 00:56:34;;;;;;;55.90;9.90;;;;;;;16.31;65.08;98979.42;665257;1267;138734;-81
2024/03/31 01:11:37;;;;;;;54.70;9.80;;;;;;;16.07;65.63;98976.68;666170;1264;139240;-79
2024/03/31 01:26:40;;;;;;;56.90;12.10;;;;;;;15.82;66.43;98979.94;665993;1267;138771;-79
2024/03/31 01:41:46;;;;;;;45.00;9.30;;;;;;;15.64;66.88;98985.92;667147;1261;138536;-81
2024/03/31 01:56:49;;;;;;;44.10;9.50;;;;;;;15.67;66.53;98982.99;665546;1276;139885;-79
2024/03/31 02:11:52;;;;;;;42.60;8.10;;;;;;;15.76;66.24;98972.36;666517;1265;139613;-81
2024/03/31 02:26:55;;;;;;;32.00;7.80;;;;;;;16.10;65.11;98972.13;666844;1267;140620;-78
2024/03/31 02:41:58;;;;;;;62.40;9.60;;;;;;;16.28;64.70;98975.27;666985;1263;139376;-81
2024/03/31 02:57:03;;;;;;;56.60;8.90;;;;;;;16.29;64.10;98970.30;669215;1266;139602;-81
2024/03/31 03:12:13;;;;;;;44.70;9.00;;;;;;;16.25;64.35;98959.71;669900;1260;140076;-80
2024/03/31 03:27:23;;;;;;;35.00;8.60;;;;;;;16.04;65.43;98943.96;669857;1262;138768;-80
2024/03/31 03:42:27;;;;;;;51.30;7.80;;;;;;;15.95;65.87;98940.22;666812;1264;139251;-81
2024/03/31 03:57:31;;;;;;;42.50;10.20;;;;;;;15.75;66.47;98932.27;665876;1272;138830;-80
2024/03/31 04:12:35;;;;;;;50.90;9.60;;;;;;;15.65;67.30;98924.02;666310;1264;188662;-79
2024/03/31 04:27:38;;;;;;;33.00;7.80;;;;;;;15.52;68.11;98924.17;666350;1276;140202;-81
2024/03/31 04:42:41;;;;;;;34.90;8.00;;;;;;;15.55;68.90;98919.33;670226;1276;139117;-81
2024/03/31 04:57:44;;;;;;;34.60;6.70;;;;;;;15.52;69.75;98916.40;672496;1264;138669;-79
2024/03/31 05:12:50;;;;;;;37.30;7.30;;;;;;;15.76;69.80;98905.57;666998;1262;139058;-83
2024/03/31 05:27:53;;;;;;;29.00;7.30;;;;;;;16.01;69.47;98897.91;667992;1265;139206;-81
2024/03/31 05:42:56;;;;;;;40.20;8.80;;;;;;;16.37;68.87;98895.38;665335;1268;138812;-81
2024/03/31 05:58:00;;;;;;;44.10;7.00;;;;;;;16.43;69.12;98898.30;666149;1266;140059;-80
2024/03/31 06:13:04;;;;;;;37.90;7.70;;;;;;;17.02;68.92;98904.48;665826;1264;138859;-80
2024/03/31 06:28:08;;;;;;;47.90;7.00;;;;;;;17.92;66.69;98907.92;665924;1265;139094;-83
2024/03/31 06:43:12;;;;;;;31.70;6.60;;;;;;;18.75;64.29;98915.15;665346;1264;138267;-80
2024/03/31 06:58:15;;;;;;;35.90;7.80;;;;;;;19.09;63.17;98921.02;666971;1262;138774;-82
2024/03/31 07:13:18;;;;;;;37.00;8.00;;;;;;;19.27;62.55;98913.41;674379;1263;139387;-80
2024/03/31 07:28:22;;;;;;;30.50;6.90;;;;;;;19.23;62.79;98910.27;666115;1277;139580;-81
2024/03/31 07:43:26;;;;;;;31.70;7.30;;;;;;;19.58;62.78;98909.99;667918;1262;139511;-79
2024/03/31 07:58:29;;;;;;;25.10;6.70;;;;;;;20.07;62.42;98915.19;666455;1263;138046;-79
2024/03/31 08:13:35;;;;;;;23.40;5.90;;;;;;;20.10;61.88;98913.06;667896;1262;137982;-81
2024/03/31 08:28:38;;;;;;;24.90;6.30;;;;;;;20.30;61.79;98902.55;667818;1265;138305;-80
2024/03/31 08:54:13;;;;;;;29.10;6.00;;;;;;;20.33;62.84;98888.30;649181;1301;545779;-79
2024/03/31 09:09:23;;;;;;;21.40;6.10;;;;;;;21.79;58.86;98871.66;663070;1269;138703;-79
2024/03/31 09:24:27;;;;;;;30.30;7.40;;;;;;;22.69;56.93;98863.20;668332;1269;138255;-80
2024/03/31 09:39:29;;;;;;;24.60;6.00;;;;;;;23.13;55.69;98854.41;665530;1273;139070;-80
2024/03/31 09:54:42;;;;;;;31.10;7.90;;;;;;;23.82;53.71;98843.73;668525;1266;138642;-80
2024/03/31 10:09:48;;;;;;;19.50;4.50;;;;;;;23.97;52.70;98847.15;668251;1267;138078;-79
2024/03/31 10:24:52;;;;;;;20.10;5.40;;;;;;;23.86;52.86;98841.09;669898;1278;138210;-79
2024/03/31 10:39:57;;;;;;;27.90;5.80;;;;;;;23.64;52.89;98829.31;668365;1268;138090;-80
2024/03/31 10:55:05;;;;;;;26.40;5.10;;;;;;;23.17;53.04;98824.04;669462;1266;138214;-79
2024/03/31 11:10:10;;;;;;;19.10;4.50;;;;;;;23.09;54.09;98804.55;670612;1267;138558;-79
2024/03/31 11:25:13;;;;;;;21.80;5.50;;;;;;;23.46;53.90;98787.70;664692;1267;139470;-80
2024/03/31 11:40:17;;;;;;;22.40;5.20;;;;;;;24.02;52.89;98776.17;667140;1268;138366;-81
2024/03/31 11:55:21;;;;;;;23.00;4.40;;;;;;;24.82;49.37;98778.50;668611;1267;139079;-79
2024/03/31 12:10:25;;;;;;;25.20;4.70;;;;;;;24.37;47.60;98770.98;665961;1265;138615;-80
2024/03/31 12:25:31;;;;;;;23.60;4.90;;;;;;;24.02;47.70;98761.52;666342;1263;138048;-80
2024/03/31 12:40:35;;;;;;;18.80;4.50;;;;;;;23.96;47.69;98743.63;666856;1263;138014;-80
2024/03/31 12:55:40;;;;;;;46.00;27.40;;;;;;;24.24;48.42;98737.77;667884;1258;138644;-81
2024/03/31 13:10:44;;;;;;;20.20;3.90;;;;;;;24.39;47.35;98740.05;669858;1261;139106;-80
2024/03/31 13:25:47;;;;;;;16.80;4.40;;;;;;;24.22;47.28;98736.67;670103;1262;140268;-79
2024/03/31 13:40:51;;;;;;;18.10;5.00;;;;;;;23.87;48.48;98736.77;666676;1262;138858;-78
2024/03/31 13:55:54;;;;;;;26.10;4.50;;;;;;;23.91;49.63;98736.83;667912;1258;139087;-80
2024/03/31 14:10:57;;;;;;;23.60;5.00;;;;;;;23.97;49.48;98733.64;666281;1261;138690;-78
2024/03/31 14:26:00;;;;;;;27.00;7.00;;;;;;;24.01;49.42;98726.37;664561;1273;137821;-78
2024/03/31 14:41:04;;;;;;;38.30;6.60;;;;;;;24.17;49.05;98730.45;665856;1258;139066;-77
2024/03/31 14:56:10;;;;;;;30.20;8.00;;;;;;;24.25;48.77;98722.65;666195;1263;140992;-77
2024/03/31 15:11:13;;;;;;;36.40;7.60;;;;;;;24.44;49.08;98707.54;666003;1262;138285;-78
2024/03/31 15:26:17;;;;;;;38.40;7.20;;;;;;;24.14;48.15;98698.94;666093;1272;138202;-78
2024/03/31 15:41:20;;;;;;;49.20;7.00;;;;;;;23.80;48.45;98693.59;665451;1262;140572;-77
2024/03/31 15:56:23;;;;;;;34.40;9.90;;;;;;;23.43;49.15;98690.30;673078;1262;138989;-78
2024/03/31 16:11:26;;;;;;;134.00;80.60;;;;;;;23.03;50.39;98683.21;665241;1260;138943;-78
2024/03/31 16:26:29;;;;;;;39.80;13.70;;;;;;;22.57;51.75;98683.02;664224;1265;139633;-78
2024/03/31 16:41:32;;;;;;;94.10;48.10;;;;;;;21.89;53.29;98680.30;664116;1263;139281;-76
2024/03/31 16:56:36;;;;;;;64.60;22.70;;;;;;;21.47;54.25;98680.38;666245;1263;138767;-78
2024/03/31 17:11:46;;;;;;;39.80;7.50;;;;;;;20.75;55.46;98681.19;671066;1262;139717;-78
2024/03/31 17:26:49;;;;;;;46.80;13.20;;;;;;;20.13;56.70;98675.61;670474;1265;138181;-79
2024/03/31 17:41:52;;;;;;;77.60;30.60;;;;;;;19.59;58.87;98676.80;671996;1263;139333;-81
2024/03/31 17:56:56;;;;;;;94.60;36.40;;;;;;;18.82;61.32;98676.86;668989;1268;139458;-79
2024/03/31 18:11:59;;;;;;;118.90;43.90;;;;;;;18.18;63.52;98670.02;670081;1265;139443;-81
2024/03/31 18:27:02;;;;;;;552.00;194.30;;;;;;;17.69;65.04;98663.44;667617;1265;139675;-80
2024/03/31 18:42:05;;;;;;;197.70;70.50;;;;;;;17.14;66.56;98670.30;669967;1267;139077;-79
2024/03/31 18:57:09;;;;;;;229.00;84.20;;;;;;;16.73;68.22;98673.52;671838;1266;140393;-80
2024/03/31 19:12:12;;;;;;;226.80;97.40;;;;;;;16.44;69.11;98673.83;673447;1265;139704;-80
2024/03/31 19:27:16;;;;;;;193.50;79.30;;;;;;;16.15;71.03;98675.73;670419;1262;139919;-80
2024/03/31 19:42:22;;;;;;;85.50;20.50;;;;;;;16.03;71.59;98673.41;671415;1265;140739;-80
2024/03/31 19:57:25;;;;;;;63.90;19.30;;;;;;;17.37;67.96;98671.63;672781;1267;139590;-79
2024/03/31 20:12:29;;;;;;;54.90;13.70;;;;;;;17.75;65.46;98679.38;672450;1275;139788;-81
2024/03/31 20:27:34;;;;;;;43.40;9.30;;;;;;;17.88;64.27;98674.49;667604;1275;139096;-78
2024/03/31 20:42:37;;;;;;;51.60;12.40;;;;;;;17.79;64.10;98669.00;668625;1265;139816;-79
2024/03/31 20:57:43;;;;;;;61.40;10.90;;;;;;;17.64;64.24;98677.73;668242;1264;194437;-79
2024/03/31 21:12:46;;;;;;;54.80;11.60;;;;;;;17.60;64.43;98679.31;667344;1266;138654;-79
2024/03/31 21:27:50;;;;;;;46.10;10.30;;;;;;;17.33;64.87;98677.92;666627;1264;140065;-79
2024/03/31 21:42:54;;;;;;;44.70;10.00;;;;;;;16.87;65.84;98681.55;664727;1263;139091;-78
2024/03/31 21:57:57;;;;;;;41.80;9.60;;;;;;;16.59;66.66;98677.85;664866;1265;138983;-78
2024/03/31 22:13:01;;;;;;;53.50;10.60;;;;;;;16.16;67.45;98687.20;668393;1271;138396;-79
2024/03/31 22:28:04;;;;;;;52.20;10.40;;;;;;;16.24;69.60;98692.45;666658;1263;139284;-79
2024/03/31 22:43:07;;;;;;;50.60;8.60;;;;;;;16.39;69.63;98690.80;667810;1265;140210;-80
2024/03/31 22:58:10;;;;;;;50.30;9.50;;;;;;;16.21;70.17;98693.93;667803;1267;139338;-79
2024/03/31 23:13:13;;;;;;;49.50;8.00;;;;;;;16.13;70.80;98691.70;668050;1267;139860;-81
2024/03/31 23:28:17;;;;;;;49.00;8.60;;;;;;;16.05;69.67;98676.75;671592;1265;139725;-81
2024/03/31 23:43:20;;;;;;;58.50;10.40;;;;;;;15.73;70.10;98667.58;670247;1275;139329;-80
2024/03/31 23:58:23;;;;;;;49.40;9.00;;;;;;;15.47;70.62;98654.02;666746;1261;139773;-80
